sensor_id;sensor_type;location;lat;lon;timestamp;temperature;humidity
25628;DHT22;40915;50.826;4.356;2024-02-16T00:00:15;13.70;99.90
25628;DHT22;40915;50.826;4.356;2024-02-16T00:02:44;13.60;99.90
25628;DHT22;40915;50.826;4.356;2024-02-16T00:05:10;13.60;99.90
25628;DHT22;40915;50.826;4.356;2024-02-16T00:07:39;13.60;99.90
25628;DHT22;40915;50.826;4.356;2024-02-16T00:10:06;13.60;99.90
25628;DHT22;40915;50.826;4.356;2024-02-16T00:12:33;13.60;99.90
25628;DHT22;40915;50.826;4.356;2024-02-16T00:14:59;13.60;99.90
25628;DHT22;40915;50.826;4.356;2024-02-16T00:17:25;13.60;99.90
25628;DHT22;40915;50.826;4.356;2024-02-16T00:19:55;13.60;99.90
25628;DHT22;40915;50.826;4.356;2024-02-16T00:22:21;13.60;99.90
25628;DHT22;40915;50.826;4.356;2024-02-16T00:24:47;13.70;99.90
25628;DHT22;40915;50.826;4.356;2024-02-16T00:27:13;13.70;99.90
25628;DHT22;40915;50.826;4.356;2024-02-16T00:29:39;13.70;99.90
25628;DHT22;40915;50.826;4.356;2024-02-16T00:32:05;13.70;99.90
25628;DHT22;40915;50.826;4.356;2024-02-16T00:34:36;13.70;99.90
25628;DHT22;40915;50.826;4.356;2024-02-16T00:37:02;13.70;99.90
25628;DHT22;40915;50.826;4.356;2024-02-16T00:39:29;13.70;99.90
25628;DHT22;40915;50.826;4.356;2024-02-16T00:41:55;13.60;99.90
25628;DHT22;40915;50.826;4.356;2024-02-16T00:44:22;13.60;99.90
25628;DHT22;40915;50.826;4.356;2024-02-16T00:46:48;13.60;99.90
25628;DHT22;40915;50.826;4.356;2024-02-16T00:49:13;13.60;99.90
25628;DHT22;40915;50.826;4.356;2024-02-16T00:51:41;13.50;99.90
25628;DHT22;40915;50.826;4.356;2024-02-16T00:54:06;13.60;99.90
25628;DHT22;40915;50.826;4.356;2024-02-16T00:56:32;13.60;99.90
25628;DHT22;40915;50.826;4.356;2024-02-16T00:58:58;13.50;99.90
25628;DHT22;40915;50.826;4.356;2024-02-16T01:01:24;13.50;99.90
25628;DHT22;40915;50.826;4.356;2024-02-16T01:03:52;13.50;99.90
25628;DHT22;40915;50.826;4.356;2024-02-16T01:06:18;13.50;99.90
25628;DHT22;40915;50.826;4.356;2024-02-16T01:08:44;13.50;99.90
25628;DHT22;40915;50.826;4.356;2024-02-16T01:11:09;13.60;99.90
25628;DHT22;40915;50.826;4.356;2024-02-16T01:13:35;13.50;99.90
25628;DHT22;40915;50.826;4.356;2024-02-16T01:16:02;13.50;99.90
25628;DHT22;40915;50.826;4.356;2024-02-16T01:18:28;13.50;99.90
25628;DHT22;40915;50.826;4.356;2024-02-16T01:20:54;13.50;99.90
25628;DHT22;40915;50.826;4.356;2024-02-16T01:23:20;13.50;99.90
25628;DHT22;40915;50.826;4.356;2024-02-16T01:25:46;13.50;99.90
25628;DHT22;40915;50.826;4.356;2024-02-16T01:28:12;13.50;99.90
25628;DHT22;40915;50.826;4.356;2024-02-16T01:30:39;13.50;99.90
25628;DHT22;40915;50.826;4.356;2024-02-16T01:33:05;13.50;99.90
25628;DHT22;40915;50.826;4.356;2024-02-16T01:35:32;13.40;99.90
25628;DHT22;40915;50.826;4.356;2024-02-16T01:37:58;13.40;99.90
25628;DHT22;40915;50.826;4.356;2024-02-16T01:40:23;13.40;99.90
25628;DHT22;40915;50.826;4.356;2024-02-16T01:42:51;13.50;99.90
25628;DHT22;40915;50.826;4.356;2024-02-16T01:45:18;13.50;99.90
25628;DHT22;40915;50.826;4.356;2024-02-16T01:47:46;13.40;99.90
25628;DHT22;40915;50.826;4.356;2024-02-16T01:50:14;13.40;99.90
25628;DHT22;40915;50.826;4.356;2024-02-16T01:52:41;13.50;99.90
25628;DHT22;40915;50.826;4.356;2024-02-16T01:55:07;13.50;99.90
25628;DHT22;40915;50.826;4.356;2024-02-16T01:57:36;13.50;99.90
25628;DHT22;40915;50.826;4.356;2024-02-16T02:00:02;13.40;99.90
25628;DHT22;40915;50.826;4.356;2024-02-16T02:02:28;13.50;99.90
25628;DHT22;40915;50.826;4.356;2024-02-16T02:04:54;13.50;99.90
25628;DHT22;40915;50.826;4.356;2024-02-16T02:07:25;13.50;99.90
25628;DHT22;40915;50.826;4.356;2024-02-16T02:09:51;13.50;99.90
25628;DHT22;40915;50.826;4.356;2024-02-16T02:12:17;13.50;99.90
25628;DHT22;40915;50.826;4.356;2024-02-16T02:14:43;13.50;99.90
25628;DHT22;40915;50.826;4.356;2024-02-16T02:17:09;13.50;99.90
25628;DHT22;40915;50.826;4.356;2024-02-16T02:19:35;13.50;99.90
25628;DHT22;40915;50.826;4.356;2024-02-16T02:22:01;13.50;99.90
25628;DHT22;40915;50.826;4.356;2024-02-16T02:24:27;13.50;99.90
25628;DHT22;40915;50.826;4.356;2024-02-16T02:26:52;13.50;99.90
25628;DHT22;40915;50.826;4.356;2024-02-16T02:29:18;13.60;99.90
25628;DHT22;40915;50.826;4.356;2024-02-16T02:31:45;13.60;99.90
25628;DHT22;40915;50.826;4.356;2024-02-16T02:34:11;13.60;99.90
25628;DHT22;40915;50.826;4.356;2024-02-16T02:36:36;13.60;99.90
25628;DHT22;40915;50.826;4.356;2024-02-16T02:39:02;13.60;99.90
25628;DHT22;40915;50.826;4.356;2024-02-16T02:41:28;13.60;99.90
25628;DHT22;40915;50.826;4.356;2024-02-16T02:43:53;13.60;99.90
25628;DHT22;40915;50.826;4.356;2024-02-16T02:46:19;13.70;99.90
25628;DHT22;40915;50.826;4.356;2024-02-16T02:48:46;13.70;99.90
25628;DHT22;40915;50.826;4.356;2024-02-16T02:51:11;13.70;99.90
25628;DHT22;40915;50.826;4.356;2024-02-16T02:53:38;13.80;99.90
25628;DHT22;40915;50.826;4.356;2024-02-16T02:56:04;13.80;99.90
25628;DHT22;40915;50.826;4.356;2024-02-16T02:58:30;13.90;99.90
25628;DHT22;40915;50.826;4.356;2024-02-16T03:00:55;13.90;99.90
25628;DHT22;40915;50.826;4.356;2024-02-16T03:03:21;14.00;99.90
25628;DHT22;40915;50.826;4.356;2024-02-16T03:05:47;13.90;99.90
25628;DHT22;40915;50.826;4.356;2024-02-16T03:08:13;13.90;99.90
25628;DHT22;40915;50.826;4.356;2024-02-16T03:10:40;13.90;99.90
25628;DHT22;40915;50.826;4.356;2024-02-16T03:13:05;13.90;99.90
25628;DHT22;40915;50.826;4.356;2024-02-16T03:15:33;13.90;99.90
25628;DHT22;40915;50.826;4.356;2024-02-16T03:17:59;13.90;99.90
25628;DHT22;40915;50.826;4.356;2024-02-16T03:20:24;13.90;99.90
25628;DHT22;40915;50.826;4.356;2024-02-16T03:22:50;13.90;99.90
25628;DHT22;40915;50.826;4.356;2024-02-16T03:25:16;13.90;99.90
25628;DHT22;40915;50.826;4.356;2024-02-16T03:27:42;13.80;99.90
25628;DHT22;40915;50.826;4.356;2024-02-16T03:30:08;13.70;99.90
25628;DHT22;40915;50.826;4.356;2024-02-16T03:32:34;13.70;99.90
25628;DHT22;40915;50.826;4.356;2024-02-16T03:35:00;13.80;99.90
25628;DHT22;40915;50.826;4.356;2024-02-16T03:37:26;13.70;99.90
25628;DHT22;40915;50.826;4.356;2024-02-16T03:39:51;13.70;99.90
25628;DHT22;40915;50.826;4.356;2024-02-16T03:42:19;13.70;99.90
25628;DHT22;40915;50.826;4.356;2024-02-16T03:44:45;13.70;99.90
25628;DHT22;40915;50.826;4.356;2024-02-16T03:47:10;13.70;99.90
25628;DHT22;40915;50.826;4.356;2024-02-16T03:49:37;13.70;99.90
25628;DHT22;40915;50.826;4.356;2024-02-16T03:52:03;13.60;99.90
25628;DHT22;40915;50.826;4.356;2024-02-16T03:54:28;13.60;99.90
25628;DHT22;40915;50.826;4.356;2024-02-16T03:56:55;13.60;99.90
25628;DHT22;40915;50.826;4.356;2024-02-16T03:59:21;13.60;99.90
25628;DHT22;40915;50.826;4.356;2024-02-16T04:01:46;13.60;99.90
25628;DHT22;40915;50.826;4.356;2024-02-16T04:04:12;13.70;99.90
25628;DHT22;40915;50.826;4.356;2024-02-16T04:06:38;13.70;99.90
25628;DHT22;40915;50.826;4.356;2024-02-16T04:09:05;13.80;99.90
25628;DHT22;40915;50.826;4.356;2024-02-16T04:11:34;13.80;99.90
25628;DHT22;40915;50.826;4.356;2024-02-16T04:13:59;13.80;99.90
25628;DHT22;40915;50.826;4.356;2024-02-16T04:16:25;13.80;99.90
25628;DHT22;40915;50.826;4.356;2024-02-16T04:18:51;13.90;99.90
25628;DHT22;40915;50.826;4.356;2024-02-16T04:21:17;13.90;99.90
25628;DHT22;40915;50.826;4.356;2024-02-16T04:23:44;13.90;99.90
25628;DHT22;40915;50.826;4.356;2024-02-16T04:26:09;13.90;99.90
25628;DHT22;40915;50.826;4.356;2024-02-16T04:28:35;13.90;99.90
25628;DHT22;40915;50.826;4.356;2024-02-16T04:31:01;13.90;99.90
25628;DHT22;40915;50.826;4.356;2024-02-16T04:33:27;13.80;99.90
25628;DHT22;40915;50.826;4.356;2024-02-16T04:35:52;13.80;99.90
25628;DHT22;40915;50.826;4.356;2024-02-16T04:38:18;13.80;99.90
25628;DHT22;40915;50.826;4.356;2024-02-16T04:40:45;13.80;99.90
25628;DHT22;40915;50.826;4.356;2024-02-16T04:43:10;13.80;99.90
25628;DHT22;40915;50.826;4.356;2024-02-16T04:45:36;13.80;99.90
25628;DHT22;40915;50.826;4.356;2024-02-16T04:48:05;13.80;99.90
25628;DHT22;40915;50.826;4.356;2024-02-16T04:50:34;13.80;99.90
25628;DHT22;40915;50.826;4.356;2024-02-16T04:53:00;13.80;99.90
25628;DHT22;40915;50.826;4.356;2024-02-16T04:55:29;13.80;99.90
25628;DHT22;40915;50.826;4.356;2024-02-16T04:57:56;13.80;99.90
25628;DHT22;40915;50.826;4.356;2024-02-16T05:00:22;13.80;99.90
25628;DHT22;40915;50.826;4.356;2024-02-16T05:02:48;13.80;99.90
25628;DHT22;40915;50.826;4.356;2024-02-16T05:05:14;13.90;99.90
25628;DHT22;40915;50.826;4.356;2024-02-16T05:07:42;13.80;99.90
25628;DHT22;40915;50.826;4.356;2024-02-16T05:10:10;13.80;99.90
25628;DHT22;40915;50.826;4.356;2024-02-16T05:12:37;13.80;99.90
25628;DHT22;40915;50.826;4.356;2024-02-16T05:15:03;13.80;99.90
25628;DHT22;40915;50.826;4.356;2024-02-16T05:17:29;13.80;99.90
25628;DHT22;40915;50.826;4.356;2024-02-16T05:19:54;13.80;99.90
25628;DHT22;40915;50.826;4.356;2024-02-16T05:22:20;13.90;99.90
25628;DHT22;40915;50.826;4.356;2024-02-16T05:24:47;13.90;99.90
25628;DHT22;40915;50.826;4.356;2024-02-16T05:27:13;14.00;99.90
25628;DHT22;40915;50.826;4.356;2024-02-16T05:29:39;14.00;99.90
25628;DHT22;40915;50.826;4.356;2024-02-16T05:32:05;14.00;99.90
25628;DHT22;40915;50.826;4.356;2024-02-16T05:34:30;14.10;99.90
25628;DHT22;40915;50.826;4.356;2024-02-16T05:37:03;14.00;99.90
25628;DHT22;40915;50.826;4.356;2024-02-16T05:39:29;14.00;99.90
25628;DHT22;40915;50.826;4.356;2024-02-16T05:41:57;14.00;99.90
25628;DHT22;40915;50.826;4.356;2024-02-16T05:44:23;14.10;99.90
25628;DHT22;40915;50.826;4.356;2024-02-16T05:46:48;14.20;99.90
25628;DHT22;40915;50.826;4.356;2024-02-16T05:49:14;14.20;99.90
25628;DHT22;40915;50.826;4.356;2024-02-16T05:51:41;14.20;99.90
25628;DHT22;40915;50.826;4.356;2024-02-16T05:54:08;14.20;99.90
25628;DHT22;40915;50.826;4.356;2024-02-16T05:56:34;14.20;99.90
25628;DHT22;40915;50.826;4.356;2024-02-16T05:59:00;14.20;99.90
25628;DHT22;40915;50.826;4.356;2024-02-16T06:01:26;14.20;99.90
25628;DHT22;40915;50.826;4.356;2024-02-16T06:03:53;14.20;99.90
25628;DHT22;40915;50.826;4.356;2024-02-16T06:06:18;14.30;99.90
25628;DHT22;40915;50.826;4.356;2024-02-16T06:08:44;14.30;99.90
25628;DHT22;40915;50.826;4.356;2024-02-16T06:11:09;14.20;99.90
25628;DHT22;40915;50.826;4.356;2024-02-16T06:13:35;14.30;99.90
25628;DHT22;40915;50.826;4.356;2024-02-16T06:16:01;14.30;99.90
25628;DHT22;40915;50.826;4.356;2024-02-16T06:18:27;14.30;99.90
25628;DHT22;40915;50.826;4.356;2024-02-16T06:20:55;14.30;99.90
25628;DHT22;40915;50.826;4.356;2024-02-16T06:23:20;14.20;99.90
25628;DHT22;40915;50.826;4.356;2024-02-16T06:25:46;14.20;99.90
25628;DHT22;40915;50.826;4.356;2024-02-16T06:28:12;14.10;99.90
25628;DHT22;40915;50.826;4.356;2024-02-16T06:30:37;14.10;99.90
25628;DHT22;40915;50.826;4.356;2024-02-16T06:33:03;14.00;99.90
25628;DHT22;40915;50.826;4.356;2024-02-16T06:35:29;14.00;99.90
25628;DHT22;40915;50.826;4.356;2024-02-16T06:37:55;14.00;99.90
25628;DHT22;40915;50.826;4.356;2024-02-16T06:40:21;13.90;99.90
25628;DHT22;40915;50.826;4.356;2024-02-16T06:42:47;14.00;99.90
25628;DHT22;40915;50.826;4.356;2024-02-16T06:45:12;13.90;99.90
25628;DHT22;40915;50.826;4.356;2024-02-16T06:47:38;13.90;99.90
25628;DHT22;40915;50.826;4.356;2024-02-16T06:50:03;13.90;99.90
25628;DHT22;40915;50.826;4.356;2024-02-16T06:52:29;13.80;99.90
25628;DHT22;40915;50.826;4.356;2024-02-16T06:54:55;13.80;99.90
25628;DHT22;40915;50.826;4.356;2024-02-16T06:57:20;13.80;99.90
25628;DHT22;40915;50.826;4.356;2024-02-16T06:59:46;13.80;99.90
25628;DHT22;40915;50.826;4.356;2024-02-16T07:02:12;13.80;99.90
25628;DHT22;40915;50.826;4.356;2024-02-16T07:04:40;13.80;99.90
25628;DHT22;40915;50.826;4.356;2024-02-16T07:07:06;13.80;99.90
25628;DHT22;40915;50.826;4.356;2024-02-16T07:09:32;13.70;99.90
25628;DHT22;40915;50.826;4.356;2024-02-16T07:11:57;13.70;99.90
25628;DHT22;40915;50.826;4.356;2024-02-16T07:14:24;13.70;99.90
25628;DHT22;40915;50.826;4.356;2024-02-16T07:16:50;13.70;99.90
25628;DHT22;40915;50.826;4.356;2024-02-16T07:19:15;13.80;99.90
25628;DHT22;40915;50.826;4.356;2024-02-16T07:21:41;13.70;99.90
25628;DHT22;40915;50.826;4.356;2024-02-16T07:24:07;13.70;99.90
25628;DHT22;40915;50.826;4.356;2024-02-16T07:26:33;13.80;99.90
25628;DHT22;40915;50.826;4.356;2024-02-16T07:28:59;13.90;99.90
25628;DHT22;40915;50.826;4.356;2024-02-16T07:31:25;13.80;99.90
25628;DHT22;40915;50.826;4.356;2024-02-16T07:33:51;13.80;99.90
25628;DHT22;40915;50.826;4.356;2024-02-16T07:36:16;13.80;99.90
25628;DHT22;40915;50.826;4.356;2024-02-16T07:38:44;13.80;99.90
25628;DHT22;40915;50.826;4.356;2024-02-16T07:41:10;13.80;99.90
25628;DHT22;40915;50.826;4.356;2024-02-16T07:43:35;13.90;99.90
25628;DHT22;40915;50.826;4.356;2024-02-16T07:46:02;13.90;99.90
25628;DHT22;40915;50.826;4.356;2024-02-16T07:48:29;14.00;99.90
25628;DHT22;40915;50.826;4.356;2024-02-16T07:50:54;13.90;99.90
25628;DHT22;40915;50.826;4.356;2024-02-16T07:53:23;13.90;99.90
25628;DHT22;40915;50.826;4.356;2024-02-16T07:55:49;13.90;99.90
25628;DHT22;40915;50.826;4.356;2024-02-16T07:58:14;14.00;99.90
25628;DHT22;40915;50.826;4.356;2024-02-16T08:00:40;14.00;99.90
25628;DHT22;40915;50.826;4.356;2024-02-16T08:03:06;14.00;99.90
25628;DHT22;40915;50.826;4.356;2024-02-16T08:05:32;14.00;99.90
25628;DHT22;40915;50.826;4.356;2024-02-16T08:07:57;14.10;99.90
25628;DHT22;40915;50.826;4.356;2024-02-16T08:10:23;14.00;99.90
25628;DHT22;40915;50.826;4.356;2024-02-16T08:12:50;14.00;99.90
25628;DHT22;40915;50.826;4.356;2024-02-16T08:15:16;14.00;99.90
25628;DHT22;40915;50.826;4.356;2024-02-16T08:17:48;14.10;99.90
25628;DHT22;40915;50.826;4.356;2024-02-16T08:20:14;14.10;99.90
25628;DHT22;40915;50.826;4.356;2024-02-16T08:22:40;14.10;99.90
25628;DHT22;40915;50.826;4.356;2024-02-16T08:25:06;14.10;99.90
25628;DHT22;40915;50.826;4.356;2024-02-16T08:27:32;14.10;99.90
25628;DHT22;40915;50.826;4.356;2024-02-16T08:29:58;14.00;99.90
25628;DHT22;40915;50.826;4.356;2024-02-16T08:32:24;14.00;99.90
25628;DHT22;40915;50.826;4.356;2024-02-16T08:34:50;13.90;99.90
25628;DHT22;40915;50.826;4.356;2024-02-16T08:37:16;13.90;99.90
25628;DHT22;40915;50.826;4.356;2024-02-16T08:39:42;13.80;99.90
25628;DHT22;40915;50.826;4.356;2024-02-16T08:42:07;13.80;99.90
25628;DHT22;40915;50.826;4.356;2024-02-16T08:44:40;13.70;99.90
25628;DHT22;40915;50.826;4.356;2024-02-16T08:47:06;13.70;99.90
25628;DHT22;40915;50.826;4.356;2024-02-16T08:49:33;13.70;99.90
25628;DHT22;40915;50.826;4.356;2024-02-16T08:51:59;13.70;99.90
25628;DHT22;40915;50.826;4.356;2024-02-16T08:54:24;13.70;99.90
25628;DHT22;40915;50.826;4.356;2024-02-16T08:56:51;13.70;99.90
25628;DHT22;40915;50.826;4.356;2024-02-16T08:59:17;13.70;99.90
25628;DHT22;40915;50.826;4.356;2024-02-16T09:01:43;13.70;99.90
25628;DHT22;40915;50.826;4.356;2024-02-16T09:04:08;13.80;99.90
25628;DHT22;40915;50.826;4.356;2024-02-16T09:06:34;13.80;99.90
25628;DHT22;40915;50.826;4.356;2024-02-16T09:09:04;13.80;99.90
25628;DHT22;40915;50.826;4.356;2024-02-16T09:11:30;13.80;99.90
25628;DHT22;40915;50.826;4.356;2024-02-16T09:13:55;13.80;99.90
25628;DHT22;40915;50.826;4.356;2024-02-16T09:16:21;13.80;99.90
25628;DHT22;40915;50.826;4.356;2024-02-16T09:18:47;13.80;99.90
25628;DHT22;40915;50.826;4.356;2024-02-16T09:21:15;13.70;99.90
25628;DHT22;40915;50.826;4.356;2024-02-16T09:23:41;13.70;99.90
25628;DHT22;40915;50.826;4.356;2024-02-16T09:26:07;13.70;99.90
25628;DHT22;40915;50.826;4.356;2024-02-16T09:28:39;13.70;99.90
25628;DHT22;40915;50.826;4.356;2024-02-16T09:31:06;13.60;99.90
25628;DHT22;40915;50.826;4.356;2024-02-16T09:33:33;13.60;99.90
25628;DHT22;40915;50.826;4.356;2024-02-16T09:35:59;13.60;99.90
25628;DHT22;40915;50.826;4.356;2024-02-16T09:38:24;13.50;99.90
25628;DHT22;40915;50.826;4.356;2024-02-16T09:40:50;13.50;99.90
25628;DHT22;40915;50.826;4.356;2024-02-16T09:43:27;13.50;99.90
25628;DHT22;40915;50.826;4.356;2024-02-16T09:45:55;13.60;99.90
25628;DHT22;40915;50.826;4.356;2024-02-16T09:48:21;13.50;99.90
25628;DHT22;40915;50.826;4.356;2024-02-16T09:50:50;13.60;99.90
25628;DHT22;40915;50.826;4.356;2024-02-16T09:53:16;13.60;99.90
25628;DHT22;40915;50.826;4.356;2024-02-16T09:55:44;13.60;99.90
25628;DHT22;40915;50.826;4.356;2024-02-16T09:58:10;13.70;99.90
25628;DHT22;40915;50.826;4.356;2024-02-16T10:00:42;13.70;99.90
25628;DHT22;40915;50.826;4.356;2024-02-16T10:03:07;13.70;99.90
25628;DHT22;40915;50.826;4.356;2024-02-16T10:05:35;13.70;99.90
25628;DHT22;40915;50.826;4.356;2024-02-16T10:08:11;13.80;99.90
25628;DHT22;40915;50.826;4.356;2024-02-16T10:10:37;13.80;99.90
25628;DHT22;40915;50.826;4.356;2024-02-16T10:13:06;13.80;99.90
25628;DHT22;40915;50.826;4.356;2024-02-16T10:15:34;13.90;99.90
25628;DHT22;40915;50.826;4.356;2024-02-16T10:18:01;13.80;99.90
25628;DHT22;40915;50.826;4.356;2024-02-16T10:20:27;13.90;99.90
25628;DHT22;40915;50.826;4.356;2024-02-16T10:23:25;13.90;99.90
25628;DHT22;40915;50.826;4.356;2024-02-16T10:25:51;13.90;99.90
25628;DHT22;40915;50.826;4.356;2024-02-16T10:28:17;13.80;99.90
25628;DHT22;40915;50.826;4.356;2024-02-16T10:30:46;13.90;99.90
25628;DHT22;40915;50.826;4.356;2024-02-16T10:33:12;13.90;99.90
25628;DHT22;40915;50.826;4.356;2024-02-16T10:35:38;13.90;99.90
25628;DHT22;40915;50.826;4.356;2024-02-16T10:38:07;13.90;99.90
25628;DHT22;40915;50.826;4.356;2024-02-16T10:40:39;13.90;99.90
25628;DHT22;40915;50.826;4.356;2024-02-16T10:43:06;14.00;99.90
25628;DHT22;40915;50.826;4.356;2024-02-16T10:45:36;13.90;99.90
25628;DHT22;40915;50.826;4.356;2024-02-16T10:48:03;13.90;99.90
25628;DHT22;40915;50.826;4.356;2024-02-16T10:50:31;13.90;99.90
25628;DHT22;40915;50.826;4.356;2024-02-16T10:53:02;13.90;99.90
25628;DHT22;40915;50.826;4.356;2024-02-16T10:55:29;13.90;99.90
25628;DHT22;40915;50.826;4.356;2024-02-16T10:57:56;13.80;99.90
25628;DHT22;40915;50.826;4.356;2024-02-16T11:00:23;13.80;99.90
25628;DHT22;40915;50.826;4.356;2024-02-16T11:02:56;13.90;99.90
25628;DHT22;40915;50.826;4.356;2024-02-16T11:05:40;13.80;99.90
25628;DHT22;40915;50.826;4.356;2024-02-16T11:08:15;13.90;99.90
25628;DHT22;40915;50.826;4.356;2024-02-16T11:10:53;13.80;99.90
25628;DHT22;40915;50.826;4.356;2024-02-16T11:13:23;13.80;99.90
25628;DHT22;40915;50.826;4.356;2024-02-16T11:16:09;13.80;99.90
25628;DHT22;40915;50.826;4.356;2024-02-16T11:18:41;13.70;99.90
25628;DHT22;40915;50.826;4.356;2024-02-16T11:21:16;13.60;99.90
25628;DHT22;40915;50.826;4.356;2024-02-16T11:23:42;13.60;99.90
25628;DHT22;40915;50.826;4.356;2024-02-16T11:26:12;13.60;99.90
25628;DHT22;40915;50.826;4.356;2024-02-16T11:28:41;13.50;99.90
25628;DHT22;40915;50.826;4.356;2024-02-16T11:31:07;13.40;99.90
25628;DHT22;40915;50.826;4.356;2024-02-16T11:33:33;13.40;99.90
25628;DHT22;40915;50.826;4.356;2024-02-16T11:36:04;13.40;99.90
25628;DHT22;40915;50.826;4.356;2024-02-16T11:38:31;13.40;99.90
25628;DHT22;40915;50.826;4.356;2024-02-16T11:41:05;13.30;99.90
25628;DHT22;40915;50.826;4.356;2024-02-16T11:43:31;13.30;99.90
25628;DHT22;40915;50.826;4.356;2024-02-16T11:45:58;13.30;99.90
25628;DHT22;40915;50.826;4.356;2024-02-16T11:48:25;13.30;99.90
25628;DHT22;40915;50.826;4.356;2024-02-16T11:51:00;13.30;99.90
25628;DHT22;40915;50.826;4.356;2024-02-16T11:53:26;13.20;99.90
25628;DHT22;40915;50.826;4.356;2024-02-16T11:55:52;13.20;99.90
25628;DHT22;40915;50.826;4.356;2024-02-16T11:58:18;13.20;99.90
25628;DHT22;40915;50.826;4.356;2024-02-16T12:00:45;13.20;99.90
25628;DHT22;40915;50.826;4.356;2024-02-16T12:03:11;13.20;99.90
25628;DHT22;40915;50.826;4.356;2024-02-16T12:05:37;13.10;99.90
25628;DHT22;40915;50.826;4.356;2024-02-16T12:08:06;13.10;99.90
25628;DHT22;40915;50.826;4.356;2024-02-16T12:10:31;13.10;99.90
25628;DHT22;40915;50.826;4.356;2024-02-16T12:12:58;13.10;99.90
25628;DHT22;40915;50.826;4.356;2024-02-16T12:15:23;13.10;99.90
25628;DHT22;40915;50.826;4.356;2024-02-16T12:17:58;13.00;99.90
25628;DHT22;40915;50.826;4.356;2024-02-16T12:20:25;13.00;99.90
25628;DHT22;40915;50.826;4.356;2024-02-16T12:22:51;12.90;99.90
25628;DHT22;40915;50.826;4.356;2024-02-16T12:25:17;12.90;99.90
25628;DHT22;40915;50.826;4.356;2024-02-16T12:27:42;12.90;99.90
25628;DHT22;40915;50.826;4.356;2024-02-16T12:30:08;12.90;99.90
25628;DHT22;40915;50.826;4.356;2024-02-16T12:32:34;12.90;99.90
25628;DHT22;40915;50.826;4.356;2024-02-16T12:35:00;12.80;99.90
25628;DHT22;40915;50.826;4.356;2024-02-16T12:37:26;12.80;99.90
25628;DHT22;40915;50.826;4.356;2024-02-16T12:39:51;12.80;99.90
25628;DHT22;40915;50.826;4.356;2024-02-16T12:42:17;12.80;99.90
25628;DHT22;40915;50.826;4.356;2024-02-16T12:44:43;12.70;99.90
25628;DHT22;40915;50.826;4.356;2024-02-16T12:47:08;12.70;99.90
25628;DHT22;40915;50.826;4.356;2024-02-16T12:49:34;12.70;99.90
25628;DHT22;40915;50.826;4.356;2024-02-16T12:52:01;12.70;99.90
25628;DHT22;40915;50.826;4.356;2024-02-16T12:54:26;12.70;99.90
25628;DHT22;40915;50.826;4.356;2024-02-16T12:56:52;12.80;99.90
25628;DHT22;40915;50.826;4.356;2024-02-16T12:59:19;12.70;99.90
25628;DHT22;40915;50.826;4.356;2024-02-16T13:01:44;12.70;99.90
25628;DHT22;40915;50.826;4.356;2024-02-16T13:04:11;12.70;99.90
25628;DHT22;40915;50.826;4.356;2024-02-16T13:06:38;12.60;99.90
25628;DHT22;40915;50.826;4.356;2024-02-16T13:09:03;12.70;99.90
25628;DHT22;40915;50.826;4.356;2024-02-16T13:11:29;12.70;99.90
25628;DHT22;40915;50.826;4.356;2024-02-16T13:13:55;12.70;99.90
25628;DHT22;40915;50.826;4.356;2024-02-16T13:16:21;12.70;99.90
25628;DHT22;40915;50.826;4.356;2024-02-16T13:18:47;12.80;99.90
25628;DHT22;40915;50.826;4.356;2024-02-16T13:21:12;12.80;99.90
25628;DHT22;40915;50.826;4.356;2024-02-16T13:23:38;12.80;99.90
25628;DHT22;40915;50.826;4.356;2024-02-16T13:26:04;12.80;99.90
25628;DHT22;40915;50.826;4.356;2024-02-16T13:28:30;12.90;99.90
25628;DHT22;40915;50.826;4.356;2024-02-16T13:30:55;12.90;99.90
25628;DHT22;40915;50.826;4.356;2024-02-16T13:33:21;12.90;99.90
25628;DHT22;40915;50.826;4.356;2024-02-16T13:35:47;13.00;99.90
25628;DHT22;40915;50.826;4.356;2024-02-16T13:38:13;13.00;99.90
25628;DHT22;40915;50.826;4.356;2024-02-16T13:40:39;13.10;99.90
25628;DHT22;40915;50.826;4.356;2024-02-16T13:43:05;13.10;99.90
25628;DHT22;40915;50.826;4.356;2024-02-16T13:45:51;13.10;99.90
25628;DHT22;40915;50.826;4.356;2024-02-16T13:48:18;13.10;99.90
25628;DHT22;40915;50.826;4.356;2024-02-16T13:50:47;13.20;99.90
25628;DHT22;40915;50.826;4.356;2024-02-16T13:53:14;13.20;99.90
25628;DHT22;40915;50.826;4.356;2024-02-16T13:55:41;13.30;99.90
25628;DHT22;40915;50.826;4.356;2024-02-16T13:58:06;13.40;99.90
25628;DHT22;40915;50.826;4.356;2024-02-16T14:00:32;13.50;99.90
25628;DHT22;40915;50.826;4.356;2024-02-16T14:02:57;13.50;99.90
25628;DHT22;40915;50.826;4.356;2024-02-16T14:05:23;13.60;99.90
25628;DHT22;40915;50.826;4.356;2024-02-16T14:07:51;13.60;99.90
25628;DHT22;40915;50.826;4.356;2024-02-16T14:10:17;13.70;99.90
25628;DHT22;40915;50.826;4.356;2024-02-16T14:12:45;13.70;99.90
25628;DHT22;40915;50.826;4.356;2024-02-16T14:15:10;13.70;99.90
25628;DHT22;40915;50.826;4.356;2024-02-16T14:17:41;13.80;99.90
25628;DHT22;40915;50.826;4.356;2024-02-16T14:20:07;13.80;99.90
25628;DHT22;40915;50.826;4.356;2024-02-16T14:22:33;13.80;99.90
25628;DHT22;40915;50.826;4.356;2024-02-16T14:24:59;13.70;99.90
25628;DHT22;40915;50.826;4.356;2024-02-16T14:27:25;13.80;99.90
25628;DHT22;40915;50.826;4.356;2024-02-16T14:29:50;13.70;99.90
25628;DHT22;40915;50.826;4.356;2024-02-16T14:32:17;13.80;99.90
25628;DHT22;40915;50.826;4.356;2024-02-16T14:34:42;13.80;99.90
25628;DHT22;40915;50.826;4.356;2024-02-16T14:37:10;13.80;99.90
25628;DHT22;40915;50.826;4.356;2024-02-16T14:39:36;13.90;99.90
25628;DHT22;40915;50.826;4.356;2024-02-16T14:42:01;13.90;99.90
25628;DHT22;40915;50.826;4.356;2024-02-16T14:44:27;13.80;99.90
25628;DHT22;40915;50.826;4.356;2024-02-16T14:46:53;13.80;99.90
25628;DHT22;40915;50.826;4.356;2024-02-16T14:49:18;13.90;99.90
25628;DHT22;40915;50.826;4.356;2024-02-16T14:51:49;13.90;99.90
25628;DHT22;40915;50.826;4.356;2024-02-16T14:54:15;13.90;99.90
25628;DHT22;40915;50.826;4.356;2024-02-16T14:56:41;13.90;99.90
25628;DHT22;40915;50.826;4.356;2024-02-16T14:59:06;13.90;99.90
25628;DHT22;40915;50.826;4.356;2024-02-16T15:01:32;13.90;99.90
25628;DHT22;40915;50.826;4.356;2024-02-16T15:03:58;13.90;99.90
25628;DHT22;40915;50.826;4.356;2024-02-16T15:06:24;13.90;99.90
25628;DHT22;40915;50.826;4.356;2024-02-16T15:08:50;13.90;99.90
25628;DHT22;40915;50.826;4.356;2024-02-16T15:11:16;14.00;99.90
25628;DHT22;40915;50.826;4.356;2024-02-16T15:13:42;13.90;99.90
25628;DHT22;40915;50.826;4.356;2024-02-16T15:16:08;14.00;99.90
25628;DHT22;40915;50.826;4.356;2024-02-16T15:18:36;13.90;99.90
25628;DHT22;40915;50.826;4.356;2024-02-16T15:21:02;13.90;99.90
25628;DHT22;40915;50.826;4.356;2024-02-16T15:23:28;13.80;99.90
25628;DHT22;40915;50.826;4.356;2024-02-16T15:25:53;13.80;99.90